Tiempo atmosférico en la estación meteorológica de Barbadillo, Salamanca (817 m.)



Fecha
DESCASC
Temp. máxima en grados centígrados (hora)
DESCASC
Temp. mínima en grados centígrados (hora)
DESCASC
Temp. media en grados centígrados
DESCASC
Racha de viento máxima en m/sg (hora)
DESCASC
Velocidad máxima media en intervalos de 10 minutos(hora)
DESCASC
Precipitaciones diarias en mm
DESCASC
Precipitaciones de 00:00 a 06:00 en mm
DESCASC
Precipitaciones de 06:00 a 12:00 en mm
DESCASC
Precipitaciones de 12:00 a 18:00 en mm
DESCASC
Precipitaciones de 18:00 a 24:00 en mm
DESCASC
13-06-2019 24 (18:30) 3.9 (04:50) 14 11.94 (16:40) 6.67 (14:30) 0 0 0 0 0
12-06-2019 22.2 (18:40) 1.3 (07:10) 11.8 9.72 (16:50) 5.28 (16:50) 0 0 0 0 0
11-06-2019 19 (19:00) 11.3 (05:30) 15.2 10.28 (13:40) 5 (15:20) 0 0 0 0 0
10-06-2019 22.5 (17:40) 3.9 (07:30) 13.2 10 (18:50) 5.83 (19:10) 0 0 0 0 0
09-06-2019 22.2 (16:50) 6.4 (00:00) 14.3 11.11 (15:20) 6.11 (17:10) 0 0 0 0 0
08-06-2019 24.8 (18:50) 0.7 (00:00) 12.7 8.61 (17:10) 5.28 (17:40) 0 0 0 0 0
07-06-2019 17.4 (17:40) 6.7 (00:00) 12 10 (03:10) 6.11 (03:10) 0.2 0.2 0 0 0
06-06-2019 19 (17:30) 2.1 (00:00) 10.5 21.11 (18:50) 12.5 (19:30) 2 0 0 0 2
05-06-2019 17.8 (16:40) 6.5 (00:00) 12.1 12.5 (16:50) 6.94 (09:20) 0 0 0 0 0
04-06-2019 22.6 (16:10) 12.1 (00:00) 17.4 11.67 (15:50) 7.22 (14:40) 0 0 0 0 0
03-06-2019 30 (17:50) 13.8 (00:00) 21.9 12.22 (19:00) 7.22 (19:40) 0 0 0 0 0
02-06-2019 31 (15:50) 11.5 (00:00) 21.3 13.06 (15:50) 6.39 (15:50) 0 0 0 0 0
01-06-2019 32.7 (17:40) 8.1 (00:00) 20.4 8.33 (19:20) 3.89 (18:30) 0 0 0 0 0
31-05-2019 30.9 (18:20) 6.8 (00:00) 18.8 6.94 (12:50) 4.17 (00:50) 0 0 0 0 0
30-05-2019 28.6 (18:30) 6.6 (00:00) 17.6 10.28 (15:40) 6.11 (12:50) 0 0 0 0 0
29-05-2019 24.1 (17:40) 6.7 (00:00) 15.4 13.61 (17:50) 8.61 (10:00) 0 0 0 0 0
28-05-2019 23.3 (17:10) 8.6 (00:00) 15.9 10.83 (23:10) 7.22 (08:30) 0 0 0 0 0
27-05-2019 25.9 (17:50) 7.8 (00:00) 16.8 8.33 (23:59) 5.83 (09:30) 0 0 0 0 0
26-05-2019 25.7 (19:00) 8 (00:00) 16.9 8.89 (18:00) 5.28 (09:30) 0 0 0 0 0
25-05-2019 21.8 (17:50) 7 (00:00) 14.4 13.61 (14:50) 7.22 (14:50) 0 0 0 0 0
24-05-2019 21.7 (17:50) 8.5 (00:00) 15.1 11.94 (22:50) 7.22 (22:50) 0 0 0 0 0
23-05-2019 24.9 (17:20) 9.7 (00:00) 17.3 10.28 (14:00) 5.83 (18:50) 0 0 0 0 0
22-05-2019 26.5 (18:30) 3.9 (00:00) 15.2 8.89 (16:30) 4.44 (16:40) 0 0 0 0 0
21-05-2019 23.3 (17:30) 2.9 (06:30) 13.1 8.33 (13:50) 2.78 (13:50) 0 0 0 0 0
20-05-2019 19.3 (18:20) 2.2 (05:20) 10.7 10.28 (16:30) 5.56 (16:30) 0 0 0 0 0
19-05-2019 17.6 (18:20) -0.2 (00:00) 8.7 9.17 (16:00) 4.44 (16:00) 0 0 0 0 0
18-05-2019 15.9 (17:50) 1.3 (00:00) 8.6 11.11 (18:10) 5.83 (18:50) 0 0 0 0 0
17-05-2019 15.5 (17:20) 6.1 (00:00) 10.8 13.61 (14:50) 8.06 (13:20) 0 0 0 0 0

Gráficas

Temp. máximas Temp. mínimas Temp. medias Precipitaciones Rachas de viento máximas Velocidades máximas media en intervalos de 10 minutos

Datos horarios

Fecha y hora oficial Temperatura (ºC) Velocidad del viento (km/h) Dirección del viento Racha (km/h) Dirección de racha Precipitación (mm) Presión (hPa) Tendencia (hPa) Humedad (%)
2019-06-15 23:00:00 15.6 0 Calma 7 Noroeste 0 -- -- 41
2019-06-15 22:00:00 19.3 3 Noroeste 13 Noroeste 0 -- -- 36
2019-06-15 21:00:00 21.3 8 Noroeste 16 Noroeste 0 -- -- 31
2019-06-15 20:00:00 22.3 10 Noroeste 21 Noroeste 0 -- -- 30
2019-06-15 19:00:00 22.5 7 Noroeste 24 Oeste 0 -- -- 29
2019-06-15 18:00:00 21.9 12 Noroeste 23 Oeste 0 -- -- 28
2019-06-15 17:00:00 21.8 10 Oeste 24 Oeste 0 -- -- 29
2019-06-15 16:00:00 20.5 7 Oeste 25 Sudoeste 0 -- -- 33
2019-06-15 15:00:00 19.2 8 Noroeste 18 Noroeste 0 -- -- 37
2019-06-15 14:00:00 18.1 7 Oeste 23 Noroeste 0 -- -- 39
2019-06-15 13:00:00 16.4 6 Oeste 22 Noroeste 0 -- -- 43
2019-06-15 12:00:00 14.5 6 Oeste 16 Oeste 0 -- -- 52
2019-06-15 11:00:00 13.1 4 Oeste 12 Oeste 0 -- -- 60
2019-06-15 10:00:00 11.7 5 Oeste 13 Noroeste 0 -- -- 67
2019-06-15 09:00:00 9.9 6 Oeste 13 Oeste 0 -- -- 78
2019-06-15 08:00:00 6.2 6 Sur 10 Sur 0 -- -- 88
2019-06-15 07:00:00 4.7 3 Sudeste 6 Sudeste 0 -- -- 87
2019-06-15 06:00:00 4.9 4 Sur 8 Sur 0 -- -- 84
2019-06-15 05:00:00 6.2 4 Sudeste 8 Sudoeste 0 -- -- 81
2019-06-15 04:00:00 7.3 2 Sur 14 Sudoeste 0 -- -- 75
2019-06-15 03:00:00 8.3 8 Sudoeste 13 Sudoeste 0 -- -- 75
2019-06-15 02:00:00 9.3 7 Sudoeste 13 Sudoeste 0 -- -- 71
2019-06-15 01:00:00 9.9 4 Sudoeste 10 Oeste 0 -- -- 66
2019-06-15 00:00:00 11.5 7 Oeste 21 Oeste 0 -- -- 60
2019-06-14 23:00:00 12.5 10 Oeste 28 Oeste 0 -- -- 57
2019-06-14 22:00:00 13.8 18 Oeste 35 Oeste 0 -- -- 52
2019-06-14 21:00:00 15.8 21 Oeste 33 Oeste 0 -- -- 44
2019-06-14 20:00:00 17.1 17 Oeste 42 Oeste 0 -- -- 39
2019-06-14 19:00:00 18.2 21 Oeste 37 Oeste 0 -- -- 36
2019-06-14 18:00:00 19.2 16 Oeste 42 Oeste 0 -- -- 35
2019-06-14 17:00:00 20.1 21 Oeste 42 Oeste 0 -- -- 35
2019-06-14 16:00:00 19.7 27 Oeste 42 Oeste 0 -- -- 36
2019-06-14 15:00:00 19.2 27 Oeste 44 Oeste 0 -- -- 36
2019-06-14 14:00:00 18.6 22 Oeste 38 Oeste 0 -- -- 38
2019-06-14 13:00:00 17.5 19 Oeste 36 Oeste 0 -- -- 43
2019-06-14 12:00:00 16.6 15 Oeste 32 Oeste 0 -- -- 45
2019-06-14 11:00:00 15 12 Oeste 21 Oeste 0 -- -- 53
2019-06-14 10:00:00 12.8 7 Noroeste 13 Oeste 0 -- -- 61
2019-06-14 09:00:00 10.9 2 Nordeste 5 Norte 0 -- -- 69
2019-06-14 08:00:00 7.1 0 Calma 6 Sur 0 -- -- 81
2019-06-14 07:00:00 5.2 6 Sur 8 Sur 0 -- -- 85
2019-06-14 06:00:00 4.3 4 Sur 7 Sur 0 -- -- 78
2019-06-14 05:00:00 5.3 4 Sudeste 6 Sur 0 -- -- 74
2019-06-14 04:00:00 6.4 2 Sudeste 6 Sur 0 -- -- 71
2019-06-14 03:00:00 7 4 Sur 9 Sudeste 0 -- -- 66
2019-06-14 02:00:00 8.5 5 Sur 8 Sur 0 -- -- 61
2019-06-14 01:00:00 10.9 3 Sudeste 8 Oeste 0 -- -- 52
2019-06-14 00:00:00 13.3 5 Sudoeste 9 Oeste 0 -- -- 48
2019-06-13 23:00:00 16 6 Noroeste 13 Oeste 0 -- -- 42
2019-06-13 22:00:00 18.7 8 Noroeste 20 Noroeste 0 -- -- 37
2019-06-13 21:00:00 20.9 13 Noroeste 25 Oeste 0 -- -- 34
2019-06-13 20:00:00 22.1 10 Norte 32 Sudoeste 0 -- -- 31
2019-06-13 19:00:00 23.5 15 Sudoeste 36 Sudoeste 0 -- -- 19
2019-06-13 18:00:00 23.7 15 Sudoeste 31 Oeste 0 -- -- 19
2019-06-13 17:00:00 23.2 11 Sudoeste 43 Sur 0 -- -- 20
2019-06-13 16:00:00 22.9 18 Sudoeste 41 Sur 0 -- -- 26
2019-06-13 15:00:00 22.3 19 Sudoeste 41 Sudoeste 0 -- -- 17
2019-06-13 14:00:00 21 13 Sudoeste 36 Oeste 0 -- -- 22
2019-06-13 13:00:00 18.8 11 Sudoeste 26 Sudoeste 0 -- -- 34
2019-06-13 12:00:00 16.5 10 Oeste 22 Oeste 0 -- -- 42
2019-06-13 11:00:00 14 6 Norte 14 Noroeste 0 -- -- 52
2019-06-13 10:00:00 11.9 8 Sudoeste 16 Oeste 0 -- -- 61
2019-06-13 09:00:00 9.8 8 Oeste 17 Oeste 0 -- -- 70
2019-06-13 08:00:00 6.2 4 Sudoeste 10 Sudoeste 0 -- -- 82
2019-06-13 07:00:00 4.3 4 Sur 5 Sur 0 -- -- 75
2019-06-13 06:00:00 4.2 5 Sur 7 Sur 0 -- -- 73
2019-06-13 05:00:00 3.9 3 Sur 7 Sur 0 -- -- 63
2019-06-13 04:00:00 4.5 3 Sudeste 6 Sur 0 -- -- 59
2019-06-13 03:00:00 5.2 4 Sur 9 Sur 0 -- -- 56
2019-06-13 02:00:00 6.6 5 Sudoeste 10 Sudeste 0 -- -- 50
2019-06-13 01:00:00 8 4 Sur 8 Sur 0 -- -- 47
2019-06-13 00:00:00 10.4 3 Sur 13 Nordeste 0 -- -- 42
2019-06-12 23:00:00 14.4 0 Calma 12 Noroeste 0 -- -- 34
2019-06-12 22:00:00 17.6 9 Noroeste 19 Noroeste 0 -- -- 28
2019-06-12 21:00:00 19.7 11 Noroeste 26 Noroeste 0 -- -- 26
2019-06-12 20:00:00 21 12 Oeste 30 Oeste 0 -- -- 24
2019-06-12 19:00:00 22 15 Oeste 33 Oeste 0 -- -- 23
2019-06-12 18:00:00 22 13 Oeste 31 Oeste 0 -- -- 23
2019-06-12 17:00:00 21.4 10 Oeste 35 Oeste 0 -- -- 24
2019-06-12 16:00:00 20.9 6 Sudoeste 24 Oeste 0 -- -- 26
2019-06-12 15:00:00 20 8 Sudoeste 26 Sur 0 -- -- 27
2019-06-12 14:00:00 18.3 9 Oeste 26 Oeste 0 -- -- 31
2019-06-12 13:00:00 16.6 8 Sudeste 19 Sur 0 -- -- 36
2019-06-12 12:00:00 14.7 9 Este 24 Este 0 -- -- 43
2019-06-12 11:00:00 13.1 12 Este 25 Este 0 -- -- 46
2019-06-12 10:00:00 11.6 14 Nordeste 27 Este 0 -- -- 51
2019-06-12 09:00:00 9.4 13 Este 23 Este 0 -- -- 58
2019-06-12 08:00:00 3.2 3 Sudeste 5 Sur 0 -- -- 74
2019-06-12 07:00:00 1.6 3 Sur 5 Sur 0 -- -- 73
2019-06-12 06:00:00 2.5 3 Sudoeste 6 Sur 0 -- -- 70
2019-06-12 05:00:00 4.1 4 Sur 8 Sur 0 -- -- 65
2019-06-12 04:00:00 7 6 Este 11 Este 0 -- -- 61
2019-06-12 03:00:00 8.2 6 Este 18 Nordeste 0 -- -- 57
2019-06-12 02:00:00 9.3 9 Nordeste 14 Nordeste 0 -- -- 54
2019-06-12 01:00:00 11 8 Nordeste 21 Nordeste 0 -- -- 48
2019-06-12 00:00:00 12.5 12 Nordeste 22 Nordeste 0 -- -- 44
2019-06-11 23:00:00 12.6 6 Nordeste 12 Nordeste 0 -- -- 39
2019-06-11 22:00:00 15.3 5 Nordeste 20 Este 0 -- -- 34
2019-06-11 21:00:00 17.5 9 Nordeste 27 Norte 0 -- -- 29
2019-06-11 20:00:00 18.2 9 Norte 28 Nordeste 0 -- -- 27
2019-06-11 19:00:00 19 8 Norte 31 Este 0 -- -- 26
2019-06-11 18:00:00 18.6 12 Nordeste 37 Norte 0 -- -- 26
2019-06-11 17:00:00 18.3 13 Norte 34 Norte 0 -- -- 26
2019-06-11 16:00:00 17.7 15 Norte 35 Nordeste 0 -- -- 28
2019-06-11 15:00:00 17.2 14 Norte 32 Nordeste 0 -- -- 31
2019-06-11 14:00:00 16.1 16 Norte 37 Norte 0 -- -- 34
2019-06-11 13:00:00 15.3 15 Norte 32 Norte 0 -- -- 40
2019-06-11 12:00:00 14.8 15 Norte 31 Nordeste 0 -- -- 45
2019-06-11 11:00:00 13.6 15 Nordeste 29 Nordeste 0 -- -- 50
2019-06-11 10:00:00 11.7 13 Norte 24 Norte 0 -- -- 62
2019-06-11 09:00:00 11.3 10 Norte 21 Nordeste 0 -- -- 64
2019-06-11 08:00:00 11.5 8 Nordeste 15 Nordeste 0 -- -- 65
2019-06-11 07:00:00 11.6 4 Nordeste 11 Norte 0 -- -- 66
2019-06-11 06:00:00 11.5 4 Norte 7 Nordeste 0 -- -- 65
2019-06-11 05:00:00 11.6 3 Noroeste 10 Noroeste 0 -- -- 63
2019-06-11 04:00:00 12.2 7 Noroeste 16 Noroeste 0 -- -- 61
2019-06-11 03:00:00 12.8 7 Noroeste 17 Oeste 0 -- -- 60
2019-06-11 02:00:00 13.5 14 Noroeste 26 Oeste 0 -- -- 57
2019-06-11 01:00:00 14.2 15 Oeste 33 Oeste 0 -- -- 56
2019-06-11 00:00:00 15.7 12 Noroeste 30 Noroeste 0 -- -- 51
2019-06-10 23:00:00 17.1 17 Noroeste 31 Oeste 0 -- -- 46
2019-06-10 22:00:00 18.5 10 Oeste 24 Oeste 0 -- -- 38
2019-06-10 21:00:00 20.2 14 Noroeste 31 Oeste 0 -- -- 26
2019-06-10 20:00:00 21.3 16 Oeste 35 Oeste 0 -- -- 22
2019-06-10 19:00:00 21.7 14 Noroeste 36 Oeste 0 -- -- 24
2019-06-10 18:00:00 22.1 15 Noroeste 28 Oeste 0 -- -- 28
2019-06-10 17:00:00 22 11 Oeste 23 Oeste 0 -- -- 28
2019-06-10 16:00:00 21 10 Noroeste 22 Noroeste 0 -- -- 30
2019-06-10 15:00:00 20.1 7 Sudoeste 18 Noroeste 0 -- -- 35
2019-06-10 14:00:00 18.8 8 Sudoeste 20 Nordeste 0 -- -- 39
2019-06-10 13:00:00 17.4 3 Norte 15 Norte 0 -- -- 46
2019-06-10 12:00:00 16.2 7 Oeste 16 Norte 0 -- -- 51
2019-06-10 11:00:00 14.5 6 Nordeste 13 Norte 0 -- -- 59
2019-06-10 10:00:00 12.6 6 Norte 12 Noroeste 0 -- -- 71
2019-06-10 09:00:00 9.9 3 Noroeste 5 Noroeste 0 -- -- 78
2019-06-10 08:00:00 5.2 2 Sur 6 Sur 0 -- -- 86
2019-06-10 07:00:00 4.2 3 Sur 4 Sur 0 -- -- 85
2019-06-10 06:00:00 4.9 4 Sur 8 Sur 0 -- -- 84
2019-06-10 05:00:00 6.1 0 Calma 5 Sur 0 -- -- 80
2019-06-10 04:00:00 7.3 3 Sur 5 Sur 0 -- -- 78
2019-06-10 03:00:00 9.4 0 Calma 7 Nordeste 0 -- -- 71
2019-06-10 02:00:00 11 4 Norte 11 Oeste 0 -- -- 68
2019-06-10 01:00:00 12.3 7 Noroeste 15 Noroeste 0 -- -- 64
2019-06-10 00:00:00 12.9 5 Oeste 13 Noroeste 0 -- -- 60
2019-06-09 23:00:00 15 9 Noroeste 24 Noroeste 0 -- -- 55
2019-06-09 22:00:00 16.8 14 Noroeste 33 Noroeste 0 -- -- 49
2019-06-09 21:00:00 18.6 19 Noroeste 35 Oeste 0 -- -- 42
2019-06-09 20:00:00 19.6 17 Oeste 34 Oeste 0 -- -- 37
2019-06-09 19:00:00 20.9 17 Noroeste 37 Oeste 0 -- -- 34
2019-06-09 18:00:00 21.7 18 Oeste 36 Oeste 0 -- -- 31
2019-06-09 17:00:00 21.5 21 Oeste 36 Oeste 0 -- -- 32
2019-06-09 16:00:00 21.8 15 Oeste 40 Oeste 0 -- -- 31
2019-06-09 15:00:00 21 16 Oeste 35 Sudoeste 0 -- -- 34
2019-06-09 14:00:00 20.2 14 Oeste 31 Oeste 0 -- -- 35
2019-06-09 13:00:00 18.8 15 Oeste 27 Sudoeste 0 -- -- 43
2019-06-09 12:00:00 16.9 12 Oeste 25 Sudoeste 0 -- -- 49
2019-06-09 11:00:00 15.4 11 Oeste 24 Oeste 0 -- -- 58
2019-06-09 10:00:00 12.7 10 Oeste 21 Oeste 0 -- -- 68
2019-06-09 09:00:00 10.9 12 Oeste 18 Noroeste 0 -- -- 75
2019-06-09 08:00:00 8.5 7 Sudoeste 12 Sudoeste 0 -- -- 87
2019-06-09 07:00:00 6.4 3 Sur 5 Sudoeste 0 -- -- 85
2019-06-09 06:00:00 7.4 4 Sur 8 Sur 0 -- -- 83
2019-06-09 05:00:00 8.7 3 Sudoeste 9 Sudoeste 0 -- -- 80
2019-06-09 04:00:00 10.3 6 Sudoeste 14 Sudoeste 0 -- -- 77
2019-06-09 03:00:00 11.4 8 Sudoeste 17 Sudoeste 0 -- -- 75
2019-06-09 02:00:00 11.3 8 Sudoeste 14 Sudoeste 0 -- -- 68
2019-06-09 01:00:00 11.6 5 Sudoeste 9 Oeste 0 -- -- 58
2019-06-09 00:00:00 14.6 6 Oeste 11 Noroeste 0 -- -- 48
2019-06-08 23:00:00 16.9 5 Oeste 14 Noroeste 0 -- -- 42
2019-06-08 22:00:00 19 10 Noroeste 24 Noroeste 0 -- -- 37
2019-06-08 21:00:00 21.5 13 Oeste 26 Oeste 0 -- -- 26
2019-06-08 20:00:00 22.3 9 Oeste 26 Oeste 0 -- -- 25
2019-06-08 19:00:00 24 16 Oeste 31 Oeste 0 -- -- 24
2019-06-08 18:00:00 24.3 16 Sudoeste 31 Oeste 0 -- -- 22
2019-06-08 17:00:00 24.3 14 Sudoeste 27 Sudoeste 0 -- -- 23
2019-06-08 16:00:00 22.9 10 Sudoeste 28 Sur 0 -- -- 25
2019-06-08 15:00:00 22.3 8 Sudoeste 24 Sur 0 -- -- 28
2019-06-08 14:00:00 20.8 6 Este 18 Sudeste 0 -- -- 31
2019-06-08 13:00:00 19 7 Nordeste 22 Este 0 -- -- 33
2019-06-08 12:00:00 17.7 11 Nordeste 26 Nordeste 0 -- -- 40
2019-06-08 11:00:00 15.7 15 Nordeste 27 Este 0 -- -- 44
2019-06-08 10:00:00 13.1 12 Este 21 Este 0 -- -- 53
2019-06-08 09:00:00 7.9 4 Noroeste 7 Noroeste 0 -- -- 79
2019-06-08 08:00:00 2.5 3 Sur 7 Sur 0 -- -- 91
2019-06-08 07:00:00 0.7 3 Sur 5 Sur 0 -- -- 89
2019-06-08 06:00:00 1.4 4 Sur 6 Sur 0 -- -- 88
2019-06-08 05:00:00 2.2 3 Sur 6 Sur 0 -- -- 87
2019-06-08 04:00:00 3.1 5 Sur 7 Sur 0 -- -- 85
2019-06-08 03:00:00 4.1 4 Sur 6 Sur 0 -- -- 83
2019-06-08 02:00:00 4.9 5 Sur 10 Sur 0 -- -- 81
2019-06-08 01:00:00 6.1 5 Sur 7 Sur 0 -- -- 75
2019-06-08 00:00:00 7.6 3 Sur 8 Sur 0 -- -- 70
2019-06-07 23:00:00 10.5 2 Sur 5 Norte 0 -- -- 61
2019-06-07 22:00:00 13.4 4 Norte 14 Noroeste 0 -- -- 48
2019-06-07 21:00:00 15.7 9 Noroeste 20 Oeste 0 -- -- 37
2019-06-07 20:00:00 15.9 6 Noroeste 28 Oeste 0 -- -- 38
2019-06-07 19:00:00 17.3 10 Noroeste 30 Sudoeste 0 -- -- 35
2019-06-07 18:00:00 17.3 10 Oeste 26 Oeste 0 -- -- 37
2019-06-07 17:00:00 15.9 9 Oeste 29 Oeste 0 -- -- 41
2019-06-07 16:00:00 16.1 15 Oeste 30 Oeste 0 -- -- 39
2019-06-07 15:00:00 14.3 10 Oeste 33 Sudoeste 0 -- -- 48
2019-06-07 14:00:00 13.5 15 Noroeste 29 Oeste 0 -- -- 51
2019-06-07 13:00:00 12.8 16 Oeste 30 Oeste 0 -- -- 56
2019-06-07 12:00:00 11.9 14 Oeste 34 Oeste 0 -- -- 58
2019-06-07 11:00:00 10.8 14 Noroeste 30 Oeste 0 -- -- 67
2019-06-07 10:00:00 9.7 13 Oeste 29 Oeste 0 -- -- 73
2019-06-07 09:00:00 7.9 15 Oeste 29 Oeste 0 -- -- 83
2019-06-07 08:00:00 7.3 16 Oeste 27 Sudoeste 0 -- -- 87
2019-06-07 07:00:00 7.3 12 Sudoeste 29 Sudoeste 0 -- -- 89
2019-06-07 06:00:00 7 16 Oeste 31 Oeste 0 -- -- 89
2019-06-07 05:00:00 7 15 Sudoeste 31 Sudoeste 0 -- -- 89
2019-06-07 04:00:00 6.8 19 Sudoeste 36 Sudoeste 0 -- -- 88
2019-06-07 03:00:00 7.1 19 Sudoeste 35 Sudoeste 0.2 -- -- 89
2019-06-07 02:00:00 7.6 14 Sudoeste 33 Sudoeste 0 -- -- 89
2019-06-07 01:00:00 8.8 21 Sudoeste 33 Sudoeste 0 -- -- 90
2019-06-07 00:00:00 8.8 19 Oeste 39 Oeste 0.6 -- -- 88
2019-06-06 23:00:00 9.7 23 Oeste 55 Oeste 1.4 -- -- 88
2019-06-06 22:00:00 14 37 Sudoeste 60 Sudoeste 0 -- -- 67
2019-06-06 21:00:00 15.3 39 Sudoeste 65 Sudoeste 0 -- -- 58
2019-06-06 20:00:00 16.9 37 Sudoeste 71 Sur 0 -- -- 49
2019-06-06 19:00:00 18.5 44 Sudoeste 76 Sudoeste 0 -- -- 42
2019-06-06 18:00:00 18.2 38 Sudoeste 60 Sur 0 -- -- 43
2019-06-06 17:00:00 18.9 31 Sudoeste 55 Sur 0 -- -- 40
2019-06-06 16:00:00 18.3 34 Sur 53 Sur 0 -- -- 37
2019-06-06 15:00:00 17.6 32 Sudoeste 49 Sur 0 -- -- 33
2019-06-06 14:00:00 16.8 28 Sudoeste 46 Sur 0 -- -- 35
2019-06-06 13:00:00 15.8 23 Sur 34 Sur 0 -- -- 36
2019-06-06 12:00:00 15.1 18 Sudoeste 31 Sur 0 -- -- 41
2019-06-06 11:00:00 13.2 9 Sudoeste 19 Sur 0 -- -- 51
2019-06-06 10:00:00 10.8 3 Sudeste 11 Nordeste 0 -- -- 64
2019-06-06 09:00:00 7.7 2 Sudoeste 6 Sudoeste 0 -- -- 75
2019-06-06 08:00:00 3.1 4 Sudeste 8 Sur 0 -- -- 83
2019-06-06 07:00:00 2.2 0 Calma 8 Sur 0 -- -- 80
2019-06-06 06:00:00 2.5 4 Sur 6 Sur 0 -- -- 78
2019-06-06 05:00:00 3.4 4 Sudeste 7 Sudeste 0 -- -- 77
2019-06-06 04:00:00 4.4 3 Sudoeste 5 Sudoeste 0 -- -- 72
2019-06-06 03:00:00 5.6 4 Sudeste 6 Este 0 -- -- 68
2019-06-06 02:00:00 7.9 4 Sur 9 Sudoeste 0 -- -- 63
2019-06-06 01:00:00 9.7 5 Oeste 16 Noroeste 0 -- -- 59
2019-06-06 00:00:00 11.3 9 Oeste 26 Oeste 0 -- -- 52
2019-06-05 23:00:00 12.4 8 Noroeste 21 Noroeste 0 -- -- 49
2019-06-05 22:00:00 12.9 11 Noroeste 27 Noroeste 0 -- -- 49
2019-06-05 21:00:00 14.4 14 Oeste 27 Oeste 0 -- -- 42
2019-06-05 20:00:00 14.9 15 Oeste 31 Oeste 0 -- -- 45
2019-06-05 19:00:00 15.9 17 Oeste 39 Oeste 0 -- -- 41
2019-06-05 18:00:00 16.6 19 Oeste 41 Oeste 0 -- -- 40
2019-06-05 17:00:00 16.9 21 Oeste 45 Oeste 0 -- -- 36
2019-06-05 16:00:00 16.6 18 Oeste 36 Sudoeste 0 -- -- 40
2019-06-05 15:00:00 16 22 Oeste 41 Oeste 0 -- -- 39
2019-06-05 14:00:00 16.2 22 Oeste 37 Oeste 0 -- -- 41
2019-06-05 13:00:00 14.5 23 Oeste 40 Oeste 0 -- -- 45
2019-06-05 12:00:00 13.7 19 Oeste 40 Oeste 0 -- -- 47
2019-06-05 11:00:00 11.7 20 Oeste 39 Oeste 0 -- -- 56
2019-06-05 10:00:00 10.6 21 Noroeste 41 Oeste 0 -- -- 63
2019-06-05 09:00:00 9.4 19 Oeste 36 Oeste 0 -- -- 73
2019-06-05 08:00:00 8.1 17 Oeste 28 Oeste 0 -- -- 83
2019-06-05 07:00:00 6.5 10 Oeste 21 Sudoeste 0 -- -- 87
2019-06-05 06:00:00 6.9 13 Sudoeste 23 Oeste 0 -- -- 83
2019-06-05 05:00:00 8 14 Oeste 26 Sudoeste 0 -- -- 79
2019-06-05 04:00:00 9.3 13 Oeste 28 Oeste 0 -- -- 74
2019-06-05 03:00:00 10.3 14 Oeste 31 Oeste 0 -- -- 71
2019-06-05 02:00:00 11 18 Oeste 31 Oeste 0 -- -- 67
2019-06-05 01:00:00 12.1 16 Oeste 40 Noroeste 0 -- -- 63
2019-06-05 00:00:00 13.6 18 Oeste 33 Oeste 0 -- -- 60
2019-06-04 23:00:00 14.8 13 Noroeste 31 Oeste 0 -- -- 49
2019-06-04 22:00:00 15.2 16 Noroeste 31 Oeste 0 -- -- 53
2019-06-04 21:00:00 16.8 13 Oeste 30 Oeste 0 -- -- 53
2019-06-04 20:00:00 17.4 17 Oeste 30 Oeste 0 -- -- 53
2019-06-04 19:00:00 17.3 15 Oeste 33 Oeste 0 -- -- 58
2019-06-04 18:00:00 17.1 19 Oeste 42 Noroeste 0 -- -- 60
2019-06-04 17:00:00 19.6 25 Noroeste 42 Noroeste 0 -- -- 56
2019-06-04 16:00:00 22.5 23 Oeste 42 Sudoeste 0 -- -- 41
2019-06-04 15:00:00 22.2 22 Oeste 41 Oeste 0 -- -- 41
2019-06-04 14:00:00 21.3 19 Oeste 37 Sudoeste 0 -- -- 45
2019-06-04 13:00:00 19.7 21 Sudoeste 35 Sudoeste 0 -- -- 50
2019-06-04 12:00:00 18.2 19 Oeste 35 Oeste 0 -- -- 52
2019-06-04 11:00:00 16.6 21 Oeste 34 Oeste 0 -- -- 59
2019-06-04 10:00:00 15 17 Oeste 31 Oeste 0 -- -- 66
2019-06-04 09:00:00 13.6 19 Oeste 31 Oeste 0 -- -- 73
2019-06-04 08:00:00 12.4 18 Oeste 27 Oeste 0 -- -- 80
2019-06-04 07:00:00 12.6 15 Oeste 26 Oeste 0 -- -- 82
2019-06-04 06:00:00 12.7 12 Oeste 22 Oeste 0 -- -- 85
2019-06-04 05:00:00 12.4 7 Oeste 12 Oeste 0 -- -- 84
2019-06-04 04:00:00 13.4 6 Sudoeste 11 Sudoeste -- -- -- 82
2019-06-04 03:00:00 14.4 6 Sudoeste 15 Sudoeste 0 -- -- 78
2019-06-04 02:00:00 15.3 10 Sudoeste 18 Sudoeste 0 -- -- 73
2019-06-04 01:00:00 16.8 12 Oeste 17 Sudoeste 0 -- -- 66
2019-06-04 00:00:00 18.7 6 Sudoeste 26 Oeste 0 -- -- 58
2019-06-03 23:00:00 20.8 15 Oeste 28 Oeste 0 -- -- 53
2019-06-03 22:00:00 23.4 14 Oeste 28 Sudoeste 0 -- -- 48
2019-06-03 21:00:00 27 18 Sudoeste 44 Oeste 0 -- -- 27
2019-06-03 20:00:00 28.3 23 Sudoeste 41 Sudoeste 0 -- -- 20
2019-06-03 19:00:00 29.3 22 Sudoeste 44 Sudoeste 0 -- -- 19
2019-06-03 18:00:00 29.7 25 Sudoeste 41 Sudoeste 0 -- -- 21
2019-06-03 17:00:00 29.6 15 Oeste 36 Oeste 0 -- -- 22
2019-06-03 16:00:00 29.1 19 Oeste 44 Oeste 0 -- -- 21
2019-06-03 15:00:00 28.6 21 Oeste 34 Sudoeste 0 -- -- 19
2019-06-03 14:00:00 27.5 17 Oeste 31 Oeste 0 -- -- 20
2019-06-03 13:00:00 25.9 13 Oeste 25 Sudoeste 0 -- -- 26
2019-06-03 12:00:00 23.8 10 Oeste 19 Sudoeste 0 -- -- 33
2019-06-03 11:00:00 21.5 9 Oeste 15 Oeste 0 -- -- 37
2019-06-03 10:00:00 18.4 9 Oeste 17 Sudoeste 0 -- -- 46
2019-06-03 09:00:00 15.8 5 Oeste 11 Oeste 0 -- -- 57
2019-06-03 08:00:00 13.9 3 Sur 6 Sudoeste 0 -- -- 62
2019-06-03 07:00:00 14.4 2 Sudeste 5 Oeste 0 -- -- 59
2019-06-03 06:00:00 15.8 4 Sudoeste 7 Sudoeste 0 -- -- 54
2019-06-03 05:00:00 15.6 4 Sur 6 Sudoeste 0 -- -- 54
2019-06-03 04:00:00 16.1 0 Calma 5 Sudoeste 0 -- -- 54
2019-06-03 03:00:00 17 5 Sur 7 Oeste 0 -- -- 49
2019-06-03 02:00:00 18.3 5 Oeste 9 Oeste 0 -- -- 45
2019-06-03 01:00:00 18.9 5 Oeste 10 Oeste 0 -- -- 43
2019-06-03 00:00:00 20.3 6 Sudoeste 10 Oeste 0 -- -- 38
2019-06-02 23:00:00 22.7 6 Oeste 14 Oeste 0 -- -- 34
2019-06-02 22:00:00 24.4 10 Noroeste 23 Noroeste 0 -- -- 30
2019-06-02 21:00:00 26.6 14 Oeste 32 Oeste 0 -- -- 26
2019-06-02 20:00:00 28.8 14 Oeste 32 Oeste 0 -- -- 23
2019-06-02 19:00:00 29.7 17 Oeste 31 Oeste 0 -- -- 22
2019-06-02 18:00:00 30 17 Noroeste 45 Sudoeste 0 -- -- 21
2019-06-02 17:00:00 30.4 19 Oeste 40 Sudoeste 0 -- -- 20
2019-06-02 16:00:00 30.7 22 Oeste 47 Oeste 0 -- -- 20
2019-06-02 15:00:00 30.5 21 Oeste 40 Oeste 0 -- -- 20
2019-06-02 14:00:00 30.3 19 Oeste 30 Oeste 0 -- -- 20
2019-06-02 13:00:00 29.1 14 Oeste 28 Sudoeste 0 -- -- 21
2019-06-02 12:00:00 27.4 8 Oeste 18 Oeste 0 -- -- 22
2019-06-02 11:00:00 25.1 8 Noroeste 14 Oeste 0 -- -- 24
2019-06-02 10:00:00 22.7 6 Noroeste 12 Oeste 0 -- -- 30
2019-06-02 09:00:00 17.8 4 Sudoeste 7 Sudoeste 0 -- -- 48
2019-06-02 08:00:00 12.7 4 Sur 6 Sudeste 0 -- -- 60
2019-06-02 07:00:00 11.6 5 Sur 6 Sur 0 -- -- 63
2019-06-02 06:00:00 12.3 4 Sur 7 Sur 0 -- -- 61
2019-06-02 05:00:00 13.2 4 Sur 8 Sur 0 -- -- 59
2019-06-02 04:00:00 13.8 4 Sur 6 Sudeste -- -- -- 59
2019-06-02 03:00:00 15.6 4 Sur 6 Sur 0 -- -- 53
2019-06-02 02:00:00 17 3 Sudeste 7 Sudeste 0 -- -- 49
2019-06-02 01:00:00 19 3 Sudeste 10 Sudoeste 0 -- -- 45
2019-06-02 00:00:00 21.8 4 Oeste 9 Noroeste 0 -- -- 39
2019-06-01 23:00:00 24.2 5 Oeste 14 Oeste 0 -- -- 33
2019-06-01 22:00:00 27.4 5 Sudoeste 14 Oeste 0 -- -- 28
2019-06-01 21:00:00 30.3 8 Oeste 18 Noroeste 0 -- -- 23
2019-06-01 20:00:00 31.4 8 Sudoeste 30 Noroeste 0 -- -- 20
2019-06-01 19:00:00 31.5 13 Noroeste 24 Noroeste 0 -- -- 19
2019-06-01 18:00:00 32.5 12 Sudoeste 25 Oeste 0 -- -- 18
2019-06-01 17:00:00 32.4 13 Oeste 25 Oeste 0 -- -- 18
2019-06-01 16:00:00 32 10 Noroeste 24 Noroeste 0 -- -- 18
2019-06-01 15:00:00 31.6 7 Oeste 25 Oeste 0 -- -- 19
2019-06-01 14:00:00 30.7 4 Este 23 Oeste 0 -- -- 19
2019-06-01 13:00:00 30.4 12 Oeste 22 Sudeste 0 -- -- 19
2019-06-01 12:00:00 28.7 6 Noroeste 14 Noroeste 0 -- -- 21
2019-06-01 11:00:00 26.5 8 Noroeste 16 Oeste 0 -- -- 30
2019-06-01 10:00:00 22.3 4 Nordeste 6 Norte 0 -- -- 42
2019-06-01 09:00:00 17.2 0 Calma 5 Sur 0 -- -- 50
2019-06-01 08:00:00 10.3 4 Sur 6 Sur 0 -- -- 60
2019-06-01 07:00:00 8.4 2 Sudeste 5 Sudeste 0 -- -- 61
2019-06-01 06:00:00 9.1 2 Sur 5 Sur 0 -- -- 59
2019-06-01 05:00:00 10.2 2 Sur 8 Sudeste 0 -- -- 54
2019-06-01 04:00:00 10.6 4 Sudoeste 13 Oeste 0 -- -- 53
2019-06-01 03:00:00 11.5 2 Sur 15 Nordeste 0 -- -- 51
2019-06-01 02:00:00 12.6 5 Sur 9 Sur 0 -- -- 47
2019-06-01 01:00:00 14 5 Sur 9 Sur 0 -- -- 44
2019-06-01 00:00:00 15.2 6 Sur 9 Sur 0 -- -- 41
2019-05-31 23:00:00 19.8 2 Sudoeste 7 Nordeste 0 -- -- 36
2019-05-31 22:00:00 25.1 4 Nordeste 9 Norte 0 -- -- 25
2019-05-31 21:00:00 29 5 Norte 13 Nordeste 0 -- -- 21
2019-05-31 20:00:00 30.1 7 Norte 16 Nordeste 0 -- -- 20
2019-05-31 19:00:00 30.5 6 Norte 18 Nordeste 0 -- -- 20
2019-05-31 18:00:00 30.2 9 Noroeste 19 Noroeste 0 -- -- 20
2019-05-31 17:00:00 30.5 10 Oeste 22 Noroeste 0 -- -- 19
2019-05-31 16:00:00 30.1 8 Norte 19 Norte 0 -- -- 19
2019-05-31 15:00:00 29.6 5 Sudeste 21 Norte 0 -- -- 20
2019-05-31 14:00:00 28.5 8 Norte 21 Este 0 -- -- 23
2019-05-31 13:00:00 27.7 10 Nordeste 25 Nordeste 0 -- -- 26
2019-05-31 12:00:00 25.9 10 Nordeste 19 Nordeste 0 -- -- 29
2019-05-31 11:00:00 23.2 9 Nordeste 19 Este 0 -- -- 33
2019-05-31 10:00:00 19.6 13 Este 19 Este 0 -- -- 40
2019-05-31 09:00:00 14.3 0 Calma 4 Sur 0 -- -- 56
2019-05-31 08:00:00 8.4 2 Sur 5 Sur 0 -- -- 68
2019-05-31 07:00:00 6.8 4 Sur 5 Sur 0 -- -- 70
2019-05-31 06:00:00 7.8 6 Sur 8 Sur 0 -- -- 66
2019-05-31 05:00:00 9 5 Sur 10 Sur 0 -- -- 63
2019-05-31 04:00:00 10.8 5 Sur 8 Sur 0 -- -- 57
2019-05-31 03:00:00 13.4 2 Sur 15 Este 0 -- -- 51
2019-05-31 02:00:00 17 13 Este 21 Este 0 -- -- 43
2019-05-31 01:00:00 18 15 Este 21 Este 0 -- -- 42
2019-05-31 00:00:00 17.6 3 Sur 14 Este 0 -- -- 39
2019-05-30 23:00:00 18.1 4 Sur 10 Nordeste 0 -- -- 37
2019-05-30 22:00:00 23.3 5 Nordeste 18 Nordeste 0 -- -- 28
2019-05-30 21:00:00 27.1 12 Nordeste 22 Nordeste 0 -- -- 22
2019-05-30 20:00:00 28.1 10 Nordeste 29 Este 0 -- -- 22
2019-05-30 19:00:00 28.3 15 Nordeste 30 Nordeste 0 -- -- 21
2019-05-30 18:00:00 28.3 15 Este 36 Este 0 -- -- 22
2019-05-30 17:00:00 28.4 16 Este 34 Nordeste 0 -- -- 22
2019-05-30 16:00:00 27.7 19 Este 37 Este 0 -- -- 20
2019-05-30 15:00:00 26.6 15 Nordeste 30 Este 0 -- -- 25
2019-05-30 14:00:00 25.1 17 Este 30 Nordeste 0 -- -- 26
2019-05-30 13:00:00 23.2 20 Este 37 Este 0 -- -- 32
2019-05-30 12:00:00 21.2 17 Este 31 Este 0 -- -- 39
2019-05-30 11:00:00 19 17 Este 26 Este 0 -- -- 44
2019-05-30 10:00:00 16.7 15 Este 26 Este 0 -- -- 51
2019-05-30 09:00:00 13.4 11 Este 17 Este 0 -- -- 63
2019-05-30 08:00:00 8.6 4 Este 8 Nordeste 0 -- -- 81
2019-05-30 07:00:00 6.8 0 Calma 4 Norte 0 -- -- 78
2019-05-30 06:00:00 8.6 0 Calma 5 Sudeste 0 -- -- 73
2019-05-30 05:00:00 10.5 3 Noroeste 10 Nordeste 0 -- -- 70
2019-05-30 04:00:00 12 8 Este 22 Este 0 -- -- 66
2019-05-30 03:00:00 12.9 15 Este 25 Este 0 -- -- 61
2019-05-30 02:00:00 13.5 15 Este 21 Este 0 -- -- 57
2019-05-30 01:00:00 13.9 11 Este 17 Este 0 -- -- 56
2019-05-30 00:00:00 15.5 13 Este 23 Este 0 -- -- 52
2019-05-29 23:00:00 16.9 14 Este 20 Este 0 -- -- 47
2019-05-29 22:00:00 19.1 14 Este 28 Este 0 -- -- 40
2019-05-29 21:00:00 21.8 19 Nordeste 35 Este 0 -- -- 35
2019-05-29 20:00:00 23 18 Nordeste 41 Este 0 -- -- 31
2019-05-29 19:00:00 23.7 21 Este 34 Este 0 -- -- 30
2019-05-29 18:00:00 23.9 22 Nordeste 49 Este 0 -- -- 31
2019-05-29 17:00:00 23.6 18 Nordeste 36 Este 0 -- -- 33
2019-05-29 16:00:00 22.6 18 Este 37 Nordeste 0 -- -- 34
2019-05-29 15:00:00 21.1 18 Este 38 Este 0 -- -- 37
2019-05-29 14:00:00 20 19 Este 35 Este 0 -- -- 39
2019-05-29 13:00:00 18.6 18 Nordeste 34 Este 0 -- -- 41
2019-05-29 12:00:00 16.7 23 Este 44 Este 0 -- -- 44
2019-05-29 11:00:00 15 26 Este 42 Este 0 -- -- 48
2019-05-29 10:00:00 12.8 31 Este 46 Nordeste 0 -- -- 54
2019-05-29 09:00:00 10.7 24 Este 40 Este 0 -- -- 61
2019-05-29 08:00:00 7.9 16 Este 25 Este 0 -- -- 70
2019-05-29 07:00:00 6.7 15 Este 23 Este 0 -- -- 73
2019-05-29 06:00:00 7.6 14 Este 23 Nordeste 0 -- -- 69
2019-05-29 05:00:00 8.5 17 Este 30 Este 0 -- -- 66
2019-05-29 04:00:00 9.2 18 Este 26 Este 0 -- -- 62
2019-05-29 03:00:00 10.2 14 Este 21 Nordeste 0 -- -- 56
2019-05-29 02:00:00 11.4 13 Este 26 Nordeste 0 -- -- 51
2019-05-29 01:00:00 13.1 18 Este 33 Nordeste 0 -- -- 51
2019-05-29 00:00:00 14.8 23 Nordeste 39 Nordeste 0 -- -- 49
2019-05-28 23:00:00 17.3 22 Nordeste 36 Nordeste 0 -- -- 43
2019-05-28 22:00:00 19.5 13 Nordeste 26 Nordeste 0 -- -- 33
2019-05-28 21:00:00 22.1 12 Nordeste 25 Nordeste 0 -- -- 28
2019-05-28 20:00:00 22.6 10 Norte 26 Norte 0 -- -- 28
2019-05-28 19:00:00 23.1 12 Nordeste 30 Nordeste 0 -- -- 27
2019-05-28 18:00:00 22.6 13 Norte 30 Norte 0 -- -- 28
2019-05-28 17:00:00 23 12 Nordeste 27 Nordeste 0 -- -- 29
2019-05-28 16:00:00 22 11 Nordeste 31 Este 0 -- -- 29
2019-05-28 15:00:00 21.2 12 Nordeste 31 Nordeste 0 -- -- 29
2019-05-28 14:00:00 19.8 15 Nordeste 30 Nordeste 0 -- -- 34
2019-05-28 13:00:00 18.4 17 Nordeste 38 Este 0 -- -- 38
2019-05-28 12:00:00 16.6 19 Nordeste 33 Nordeste 0 -- -- 44
2019-05-28 11:00:00 14.7 22 Este 31 Nordeste 0 -- -- 47
2019-05-28 10:00:00 12.7 18 Este 33 Este 0 -- -- 59
2019-05-28 09:00:00 10.8 21 Nordeste 35 Nordeste 0 -- -- 66
2019-05-28 08:00:00 9.4 17 Este 27 Este 0 -- -- 73
2019-05-28 07:00:00 8.9 11 Este 19 Nordeste 0 -- -- 75
2019-05-28 06:00:00 9.6 8 Nordeste 21 Nordeste 0 -- -- 75
2019-05-28 05:00:00 10.6 12 Nordeste 23 Nordeste 0 -- -- 71
2019-05-28 04:00:00 11.6 17 Nordeste 25 Este 0 -- -- 68
2019-05-28 03:00:00 12.7 14 Nordeste 32 Nordeste 0 -- -- 69
2019-05-28 02:00:00 14.1 19 Nordeste 32 Nordeste 0 -- -- 65
2019-05-28 01:00:00 16.4 10 Nordeste 31 Este 0 -- -- 59
2019-05-28 00:00:00 18.9 11 Norte 30 Norte 0 -- -- 49
2019-05-27 23:00:00 20.2 9 Noroeste 21 Oeste 0 -- -- 50
2019-05-27 22:00:00 21.7 8 Noroeste 13 Oeste 0 -- -- 40
2019-05-27 21:00:00 23.9 6 Noroeste 23 Norte 0 -- -- 34
2019-05-27 20:00:00 25 10 Norte 21 Oeste 0 -- -- 32
2019-05-27 19:00:00 25.3 6 Norte 25 Noroeste 0 -- -- 31
2019-05-27 18:00:00 25.6 9 Norte 28 Norte 0 -- -- 32
2019-05-27 17:00:00 25.3 9 Norte 23 Noroeste 0 -- -- 34
2019-05-27 16:00:00 24.8 10 Noroeste 27 Noroeste 0 -- -- 34
2019-05-27 15:00:00 25.1 7 Noroeste 29 Noroeste 0 -- -- 35
2019-05-27 14:00:00 23.3 10 Norte 22 Nordeste 0 -- -- 38
2019-05-27 13:00:00 22.3 8 Norte 25 Este 0 -- -- 39
2019-05-27 12:00:00 21.4 9 Nordeste 25 Este 0 -- -- 41
2019-05-27 11:00:00 20.3 14 Este 28 Este 0 -- -- 43
2019-05-27 10:00:00 18.1 19 Este 28 Este 0 -- -- 46
2019-05-27 09:00:00 14.8 14 Este 22 Este 0 -- -- 60
2019-05-27 08:00:00 8.9 2 Sudoeste 5 Noroeste 0 -- -- 77
2019-05-27 07:00:00 8 3 Sur 7 Sur 0 -- -- 77
2019-05-27 06:00:00 8.8 5 Sur 6 Sur 0 -- -- 75
2019-05-27 05:00:00 10.2 3 Oeste 7 Sur 0 -- -- 69
2019-05-27 04:00:00 10.1 2 Sudeste 8 Sudoeste 0 -- -- 70
2019-05-27 03:00:00 10.7 5 Sur 9 Sur 0 -- -- 67
2019-05-27 02:00:00 11.7 3 Sur 6 Oeste 0 -- -- 63
2019-05-27 01:00:00 13.3 3 Sur 6 Sur 0 -- -- 58
2019-05-27 00:00:00 15 4 Sudeste 13 Sudoeste 0 -- -- 53
2019-05-26 23:00:00 16.7 5 Sur 7 Sur 0 -- -- 48
2019-05-26 22:00:00 21.3 4 Sudeste 15 Este 0 -- -- 38
2019-05-26 21:00:00 24.7 9 Este 22 Nordeste 0 -- -- 32
2019-05-26 20:00:00 25.3 8 Nordeste 22 Nordeste 0 -- -- 31
2019-05-26 19:00:00 25.7 14 Nordeste 31 Nordeste 0 -- -- 31
2019-05-26 18:00:00 25.4 14 Nordeste 32 Este 0 -- -- 32
2019-05-26 17:00:00 24.7 14 Norte 30 Norte 0 -- -- 34
2019-05-26 16:00:00 23.5 11 Norte 23 Nordeste 0 -- -- 36
2019-05-26 15:00:00 22.6 11 Nordeste 26 Nordeste 0 -- -- 39
2019-05-26 14:00:00 21 10 Nordeste 27 Nordeste 0 -- -- 41
2019-05-26 13:00:00 19.1 12 Nordeste 26 Nordeste 0 -- -- 46
2019-05-26 12:00:00 17.3 10 Nordeste 25 Este 0 -- -- 50
2019-05-26 11:00:00 15.1 14 Nordeste 27 Este 0 -- -- 57
2019-05-26 10:00:00 13.3 19 Este 28 Este 0 -- -- 62
2019-05-26 09:00:00 11.2 17 Este 25 Este 0 -- -- 69
2019-05-26 08:00:00 9.1 9 Este 21 Este 0 -- -- 74
2019-05-26 07:00:00 8.1 12 Este 22 Este 0 -- -- 77
2019-05-26 06:00:00 8.5 10 Este 19 Nordeste 0 -- -- 75
2019-05-26 05:00:00 9.4 15 Este 20 Este 0 -- -- 73
2019-05-26 04:00:00 9.9 12 Este 20 Este 0 -- -- 70
2019-05-26 03:00:00 10.9 15 Este 23 Este 0 -- -- 66
2019-05-26 02:00:00 11.6 12 Este 19 Este 0 -- -- 63
2019-05-26 01:00:00 13.2 10 Este 24 Este 0 -- -- 58
2019-05-26 00:00:00 13.8 11 Este 15 Este 0 -- -- 54
2019-05-25 23:00:00 15.2 8 Este 10 Este 0 -- -- 47
2019-05-25 22:00:00 17.6 8 Este 20 Nordeste 0 -- -- 38
2019-05-25 21:00:00 20.5 17 Nordeste 27 Nordeste 0 -- -- 31
2019-05-25 20:00:00 21.4 12 Nordeste 28 Nordeste 0 -- -- 31
2019-05-25 19:00:00 21.4 15 Nordeste 31 Nordeste 0 -- -- 33
2019-05-25 18:00:00 21.8 13 Nordeste 32 Nordeste 0 -- -- 32
2019-05-25 17:00:00 21.4 17 Nordeste 36 Nordeste 0 -- -- 31
2019-05-25 16:00:00 20.7 18 Nordeste 40 Este 0 -- -- 35
2019-05-25 15:00:00 19.7 18 Nordeste 49 Este 0 -- -- 37
2019-05-25 14:00:00 18.6 22 Este 41 Este 0 -- -- 42
2019-05-25 13:00:00 17.1 15 Nordeste 34 Nordeste 0 -- -- 46
2019-05-25 12:00:00 16 23 Nordeste 41 Nordeste 0 -- -- 51
2019-05-25 11:00:00 14.6 22 Nordeste 38 Nordeste 0 -- -- 56
2019-05-25 10:00:00 12.8 24 Este 38 Nordeste 0 -- -- 62
2019-05-25 09:00:00 11.2 16 Este 27 Nordeste 0 -- -- 72
2019-05-25 08:00:00 8.4 7 Nordeste 13 Nordeste 0 -- -- 86
2019-05-25 07:00:00 7 10 Este 19 Este 0 -- -- 87
2019-05-25 06:00:00 7.7 10 Este 20 Este 0 -- -- 84
2019-05-25 05:00:00 8.3 12 Nordeste 26 Este 0 -- -- 82
2019-05-25 04:00:00 9.4 18 Este 28 Nordeste 0 -- -- 78
2019-05-25 03:00:00 9.9 17 Nordeste 31 Nordeste 0 -- -- 75
2019-05-25 02:00:00 10.8 21 Nordeste 38 Nordeste 0 -- -- 70
2019-05-25 01:00:00 11.9 21 Nordeste 35 Este 0 -- -- 63
2019-05-25 00:00:00 13.3 19 Nordeste 34 Nordeste 0 -- -- 55
2019-05-24 23:00:00 14.9 23 Nordeste 43 Este 0 -- -- 49
2019-05-24 22:00:00 17.2 22 Nordeste 36 Nordeste 0 -- -- 43
2019-05-24 21:00:00 19.5 9 Norte 32 Nordeste 0 -- -- 31
2019-05-24 20:00:00 21.2 14 Nordeste 31 Norte 0 -- -- 31
2019-05-24 19:00:00 21.5 14 Norte 32 Nordeste 0 -- -- 30
2019-05-24 18:00:00 21.6 14 Nordeste 35 Nordeste 0 -- -- 29
2019-05-24 17:00:00 21.3 13 Nordeste 34 Norte 0 -- -- 33
2019-05-24 16:00:00 20.9 16 Nordeste 34 Norte 0 -- -- 34
2019-05-24 15:00:00 19.9 13 Norte 33 Nordeste 0 -- -- 36
2019-05-24 14:00:00 19.1 15 Nordeste 35 Nordeste 0 -- -- 41
2019-05-24 13:00:00 17.8 15 Nordeste 32 Nordeste 0 -- -- 46
2019-05-24 12:00:00 16.9 16 Nordeste 35 Nordeste 0 -- -- 49
2019-05-24 11:00:00 15.5 19 Nordeste 41 Nordeste 0 -- -- 54
2019-05-24 10:00:00 13.6 15 Nordeste 33 Nordeste 0 -- -- 64
2019-05-24 09:00:00 12.1 12 Nordeste 25 Nordeste 0 -- -- 72
2019-05-24 08:00:00 10.8 13 Nordeste 23 Nordeste 0 -- -- 76
2019-05-24 07:00:00 10 5 Nordeste 13 Nordeste 0 -- -- 81
2019-05-24 06:00:00 10.6 6 Nordeste 13 Norte 0 -- -- 85
2019-05-24 05:00:00 8.5 0 Calma 4 Sudeste 0 -- -- 77
2019-05-24 04:00:00 10 0 Calma 4 Este 0 -- -- 73
2019-05-24 03:00:00 11.7 3 Sudoeste 10 Oeste 0 -- -- 68
2019-05-24 02:00:00 12.4 6 Oeste 12 Nordeste 0 -- -- 66
2019-05-24 01:00:00 13.2 4 Sur 10 Oeste 0 -- -- 63
2019-05-24 00:00:00 15.2 5 Oeste 15 Noroeste 0 -- -- 58
2019-05-23 23:00:00 16.7 8 Noroeste 25 Noroeste 0 -- -- 56
2019-05-23 22:00:00 18.3 13 Noroeste 34 Noroeste 0 -- -- 55
2019-05-23 21:00:00 20.9 15 Noroeste 27 Oeste 0 -- -- 45
2019-05-23 20:00:00 22.9 16 Oeste 34 Sudoeste 0 -- -- 34
2019-05-23 19:00:00 23.4 19 Oeste 35 Oeste 0 -- -- 31
2019-05-23 18:00:00 23.9 17 Oeste 32 Oeste 0 -- -- 34
2019-05-23 17:00:00 24.6 14 Oeste 34 Oeste 0 -- -- 32
2019-05-23 16:00:00 24.5 14 Oeste 30 Sudoeste 0 -- -- 34
2019-05-23 15:00:00 23.8 14 Oeste 32 Oeste 0 -- -- 37
2019-05-23 14:00:00 23.4 14 Sudoeste 37 Noroeste 0 -- -- 42
2019-05-23 13:00:00 21.7 7 Oeste 21 Oeste 0 -- -- 49
2019-05-23 12:00:00 19.8 7 Noroeste 19 Noroeste 0 -- -- 56
2019-05-23 11:00:00 17.3 10 Oeste 17 Oeste 0 -- -- 65
2019-05-23 10:00:00 15.8 3 Noroeste 6 Noroeste 0 -- -- 71
2019-05-23 09:00:00 12.4 2 Noroeste 4 Sudeste 0 -- -- 85
2019-05-23 08:00:00 10.2 2 Oeste 6 Sur 0 -- -- 89
2019-05-23 07:00:00 10.1 0 Calma 5 Sudeste 0 -- -- 85
2019-05-23 06:00:00 10.6 5 Sudeste 7 Sur 0 -- -- 85
2019-05-23 05:00:00 11.8 3 Sudoeste 8 Sur 0 -- -- 82
2019-05-23 04:00:00 13.1 3 Sudoeste 13 Oeste 0 -- -- 75
2019-05-23 03:00:00 14.1 8 Sudoeste 17 Sudoeste 0 -- -- 78
2019-05-23 02:00:00 15.2 9 Oeste 19 Oeste 0 -- -- 74
2019-05-23 01:00:00 16.3 12 Oeste 21 Oeste 0 -- -- 69
2019-05-23 00:00:00 14.4 6 Sur 9 Sur 0 -- -- 54
2019-05-22 23:00:00 18.4 6 Sur 10 Sur 0 -- -- 45
2019-05-22 22:00:00 22.2 5 Oeste 27 Sudoeste 0 -- -- 37
2019-05-22 21:00:00 24 11 Sudoeste 21 Sudoeste 0 -- -- 33
2019-05-22 20:00:00 23.9 7 Sudoeste 24 Oeste 0 -- -- 33
2019-05-22 19:00:00 24.7 6 Noroeste 26 Noroeste 0 -- -- 30
2019-05-22 18:00:00 25.6 9 Oeste 24 Oeste 0 -- -- 28
2019-05-22 17:00:00 26.2 12 Oeste 32 Oeste 0 -- -- 27
2019-05-22 16:00:00 25.1 6 Norte 22 Oeste 0 -- -- 28
2019-05-22 15:00:00 25.8 7 Sudeste 18 Este 0 -- -- 27
2019-05-22 14:00:00 24 6 Nordeste 20 Nordeste 0 -- -- 29
2019-05-22 13:00:00 23 6 Nordeste 16 Nordeste 0 -- -- 29
2019-05-22 12:00:00 20.3 4 Nordeste 12 Este 0 -- -- 38
2019-05-22 11:00:00 17.7 6 Nordeste 15 Este 0 -- -- 45
2019-05-22 10:00:00 15.3 11 Este 19 Este 0 -- -- 52
2019-05-22 09:00:00 10.7 5 Este 9 Este 0 -- -- 64
2019-05-22 08:00:00 5.3 5 Sur 11 Sur 0 -- -- 77
2019-05-22 07:00:00 4.1 5 Sur 8 Sur 0 -- -- 78
2019-05-22 06:00:00 4.6 4 Nordeste 7 Sudeste 0 -- -- 78
2019-05-22 05:00:00 5.5 0 Calma 9 Sudoeste 0 -- -- 74
2019-05-22 04:00:00 6.2 2 Norte 5 Norte 0 -- -- 71
2019-05-22 03:00:00 7.4 2 Oeste 6 Sur 0 -- -- 67
2019-05-22 02:00:00 7.7 4 Sur 9 Sur 0 -- -- 66
2019-05-22 01:00:00 8.9 5 Sur 10 Sur 0 -- -- 61
2019-05-22 00:00:00 10.6 4 Sur 10 Sur 0 -- -- 55
2019-05-21 23:00:00 13.1 4 Sur 9 Nordeste 0 -- -- 49
2019-05-21 22:00:00 18.2 3 Norte 12 Norte 0 -- -- 40
2019-05-21 21:00:00 21.4 7 Norte 14 Norte 0 -- -- 31
2019-05-21 20:00:00 22.3 10 Norte 19 Noroeste 0 -- -- 30
2019-05-21 19:00:00 22.6 3 Sudeste 19 Noroeste 0 -- -- 30
2019-05-21 18:00:00 23.1 10 Nordeste 21 Nordeste 0 -- -- 30
2019-05-21 17:00:00 22.9 9 Norte 18 Noroeste 0 -- -- 29
2019-05-21 16:00:00 22.4 7 Noroeste 23 Este 0 -- -- 30
2019-05-21 15:00:00 21.1 10 Nordeste 19 Norte 0 -- -- 34
2019-05-21 14:00:00 20.2 9 Este 30 Nordeste 0 -- -- 34
2019-05-21 13:00:00 18.9 8 Nordeste 17 Norte 0 -- -- 40
2019-05-21 12:00:00 17.1 4 Noroeste 13 Sudoeste 0 -- -- 46
2019-05-21 11:00:00 14.8 4 Noroeste 13 Noroeste 0 -- -- 54
2019-05-21 10:00:00 12.1 7 Noroeste 10 Noroeste 0 -- -- 67
2019-05-21 09:00:00 10 7 Oeste 14 Oeste 0 -- -- 77
2019-05-21 08:00:00 5.1 3 Sudoeste 7 Sur 0 -- -- 88
2019-05-21 07:00:00 2.9 2 Sudoeste 5 Sur 0 -- -- 85
2019-05-21 06:00:00 3.6 3 Sur 6 Sur 0 -- -- 80
2019-05-21 05:00:00 3.9 6 Sur 8 Sur 0 -- -- 78
2019-05-21 04:00:00 4.9 4 Sur 7 Sur 0 -- -- 74
2019-05-21 03:00:00 5.7 4 Sur 9 Sur 0 -- -- 71
2019-05-21 02:00:00 5.9 7 Sur 9 Sur 0 -- -- 67
2019-05-21 01:00:00 8.1 2 Sur 6 Sur 0 -- -- 60
2019-05-21 00:00:00 10.5 4 Sudoeste 5 Sudoeste 0 -- -- 54
2019-05-20 23:00:00 13.3 3 Sudoeste 11 Oeste 0 -- -- 46
2019-05-20 22:00:00 15 6 Noroeste 21 Noroeste 0 -- -- 40
2019-05-20 21:00:00 16 15 Noroeste 23 Noroeste 0 -- -- 37
2019-05-20 20:00:00 16.6 12 Noroeste 24 Oeste 0 -- -- 38
2019-05-20 19:00:00 18.4 15 Oeste 35 Oeste 0 -- -- 34
2019-05-20 18:00:00 18.4 18 Noroeste 34 Oeste 0 -- -- 36
2019-05-20 17:00:00 18.3 17 Noroeste 37 Oeste 0 -- -- 36
2019-05-20 16:00:00 18.5 13 Oeste 35 Noroeste 0 -- -- 38
2019-05-20 15:00:00 16.9 12 Oeste 26 Oeste 0 -- -- 39
2019-05-20 14:00:00 16.5 16 Oeste 26 Oeste 0 -- -- 39
2019-05-20 13:00:00 15.8 9 Oeste 22 Sudoeste 0 -- -- 41
2019-05-20 12:00:00 14.7 11 Oeste 20 Oeste 0 -- -- 44
2019-05-20 11:00:00 13.7 12 Oeste 19 Sudoeste 0 -- -- 47
2019-05-20 10:00:00 12.1 10 Oeste 16 Oeste 0 -- -- 57
2019-05-20 09:00:00 9.7 8 Sudoeste 13 Oeste 0 -- -- 66
2019-05-20 08:00:00 5.5 3 Sur 8 Sur 0 -- -- 84
2019-05-20 07:00:00 3.6 3 Sudeste 6 Sur 0 -- -- 80
2019-05-20 06:00:00 2.8 3 Sudeste 8 Sur 0 -- -- 82
2019-05-20 05:00:00 2.5 5 Sur 10 Sur 0 -- -- 79
2019-05-20 04:00:00 2.6 0 Calma 8 Sur 0 -- -- 74
2019-05-20 03:00:00 3.4 4 Sur 8 Sur 0 -- -- 69
2019-05-20 02:00:00 4.8 3 Sur 8 Sur 0 -- -- 62
2019-05-20 01:00:00 4.7 5 Sur 8 Sur 0 -- -- 55
2019-05-20 00:00:00 6.3 5 Sur 9 Sur 0 -- -- 48
2019-05-19 23:00:00 8.9 7 Sur 9 Sur 0 -- -- 40
2019-05-19 22:00:00 12.8 4 Sudoeste 17 Oeste 0 -- -- 31
2019-05-19 21:00:00 15.9 12 Oeste 22 Oeste 0 -- -- 25
2019-05-19 20:00:00 17 11 Oeste 26 Oeste 0 -- -- 26
2019-05-19 19:00:00 17.4 16 Oeste 28 Oeste 0 -- -- 24
2019-05-19 18:00:00 17.1 12 Noroeste 25 Noroeste 0 -- -- 26
2019-05-19 17:00:00 16.7 12 Noroeste 27 Noroeste 0 -- -- 27
2019-05-19 16:00:00 16.9 16 Oeste 33 Oeste 0 -- -- 29
2019-05-19 15:00:00 16.1 11 Oeste 25 Noroeste 0 -- -- 34
2019-05-19 14:00:00 14.8 6 Sudoeste 21 Noroeste 0 -- -- 36
2019-05-19 13:00:00 13.1 9 Noroeste 23 Oeste 0 -- -- 41
2019-05-19 12:00:00 12.6 4 Oeste 13 Sur 0 -- -- 49
2019-05-19 11:00:00 10.9 6 Sudeste 12 Este 0 -- -- 58
2019-05-19 10:00:00 8 3 Sudoeste 6 Noroeste 0 -- -- 71
2019-05-19 09:00:00 5.8 3 Sudoeste 8 Sudoeste 0 -- -- 85
2019-05-19 08:00:00 0.7 3 Sur 4 Sudeste 0 -- -- 90
2019-05-19 07:00:00 0.1 3 Sur 5 Sur 0 -- -- 87
2019-05-19 06:00:00 0.6 5 Sur 8 Sur 0 -- -- 86
2019-05-19 05:00:00 1.3 4 Sur 5 Sudoeste 0 -- -- 83
2019-05-19 04:00:00 2.9 3 Sur 6 Sudeste 0 -- -- 77
2019-05-19 03:00:00 4.2 4 Sur 8 Sur 0 -- -- 75
2019-05-19 02:00:00 5.5 4 Oeste 9 Noroeste 0 -- -- 70
2019-05-19 01:00:00 5.9 3 Sur 7 Sudeste 0 -- -- 66
2019-05-19 00:00:00 6.8 4 Sudoeste 10 Oeste 0 -- -- 60
2019-05-18 23:00:00 9 6 Oeste 14 Oeste 0 -- -- 52
2019-05-18 22:00:00 10.7 9 Oeste 18 Oeste 0 -- -- 46
2019-05-18 21:00:00 12.9 14 Oeste 30 Noroeste 0 -- -- 39
2019-05-18 20:00:00 14.3 17 Oeste 35 Noroeste 0 -- -- 38
2019-05-18 19:00:00 15.1 16 Oeste 40 Noroeste 0 -- -- 38
2019-05-18 18:00:00 15.3 20 Oeste 33 Oeste 0 -- -- 35
2019-05-18 17:00:00 14.1 20 Oeste 36 Noroeste 0 -- -- 39
2019-05-18 16:00:00 14.2 18 Noroeste 32 Noroeste 0 -- -- 40
2019-05-18 15:00:00 14 13 Oeste 30 Noroeste 0 -- -- 40
2019-05-18 14:00:00 12.7 13 Oeste 27 Oeste 0 -- -- 43
2019-05-18 13:00:00 12.3 14 Oeste 27 Oeste 0 -- -- 46
2019-05-18 12:00:00 11.1 9 Oeste 24 Noroeste 0 -- -- 50
2019-05-18 11:00:00 9.2 12 Oeste 25 Oeste 0 -- -- 60
2019-05-18 10:00:00 7.5 14 Noroeste 25 Oeste 0 -- -- 68
2019-05-18 09:00:00 5.6 12 Oeste 21 Oeste 0 -- -- 77
2019-05-18 08:00:00 3 7 Sudoeste 11 Sudoeste 0 -- -- 90
2019-05-18 07:00:00 1.9 5 Sur 10 Oeste 0 -- -- 86
2019-05-18 06:00:00 3.3 7 Oeste 14 Oeste 0 -- -- 85
2019-05-18 05:00:00 4.2 8 Oeste 17 Oeste 0 -- -- 84
2019-05-18 04:00:00 5.1 9 Oeste 24 Oeste 0 -- -- 80
2019-05-18 03:00:00 5.7 12 Oeste 21 Oeste 0 -- -- 79
2019-05-18 02:00:00 5.9 8 Oeste 13 Oeste 0 -- -- 79
2019-05-18 01:00:00 6.9 9 Oeste 15 Oeste 0 -- -- 74
2019-05-18 00:00:00 7.4 4 Oeste 15 Oeste 0 -- -- 69
2019-05-17 23:00:00 8.5 8 Oeste 22 Oeste 0 -- -- 66
2019-05-17 22:00:00 10.1 15 Noroeste 31 Noroeste 0 -- -- 59
2019-05-17 21:00:00 12.1 16 Noroeste 35 Noroeste 0 -- -- 54
2019-05-17 20:00:00 14.3 22 Oeste 42 Oeste 0 -- -- 48
2019-05-17 19:00:00 14.2 19 Noroeste 44 Noroeste 0 -- -- 40
2019-05-17 18:00:00 14.8 23 Noroeste 38 Oeste 0 -- -- 40
2019-05-17 17:00:00 15.1 21 Noroeste 42 Oeste 0 -- -- 36
2019-05-17 16:00:00 14.7 19 Noroeste 40 Oeste 0 -- -- 43
2019-05-17 15:00:00 14.1 25 Oeste 49 Noroeste 0 -- -- 47
2019-05-17 14:00:00 12.8 24 Oeste 44 Oeste 0 -- -- 54
2019-05-17 13:00:00 12.4 25 Oeste 45 Noroeste 0 -- -- 58
2019-05-17 12:00:00 10.9 22 Oeste 42 Oeste 0 -- -- 63
2019-05-17 11:00:00 10.3 22 Oeste 40 Oeste 0 -- -- 65
2019-05-17 10:00:00 9.2 23 Oeste 41 Oeste 0 -- -- 68
2019-05-17 09:00:00 8.6 19 Oeste 36 Oeste 0 -- -- 71
2019-05-17 08:00:00 6.7 18 Oeste 33 Oeste 0 -- -- 79
2019-05-17 07:00:00 6.1 18 Oeste 32 Oeste 0 -- -- 81
2019-05-17 06:00:00 6.4 20 Oeste 36 Oeste 0 -- -- 81
2019-05-17 05:00:00 6.5 17 Oeste 32 Oeste 0 -- -- 80
2019-05-17 04:00:00 7.6 13 Oeste 32 Oeste 0 -- -- 78
2019-05-17 03:00:00 7.9 15 Oeste 32 Oeste 0 -- -- 76
2019-05-17 02:00:00 8 18 Oeste 31 Oeste 0 -- -- 78
2019-05-17 01:00:00 7.9 13 Oeste 26 Oeste 0 -- -- 84
2019-05-17 00:00:00 8.8 16 Noroeste 35 Oeste 0 -- -- 77